AirNav   Air Wisconsin Up To $57,000 Bonus
 
 1492 users online  

2MI2 St Mary Mercy Hospital Heliport
Livonia, Michigan, USA

GOING TO LIVONIA?


FAA INFORMATION EFFECTIVE 02 JANUARY 2020

Location

FAA Identifier: 2MI2
Lat/Long: 42-23-32.0000N 083-24-18.0000W
42-23.533333N 083-24.300000W
42.3922222,-83.4050000
(estimated)
Elevation: 674.2 ft. / 205 m (estimated)
Variation: 07W (2000)
Time zone: UTC -5 (UTC -4 during Daylight Saving Time)
Zip code: 48152

Heliport Operations

Heliport use: Private use, MEDICAL.
Activation date: 10/1994
Control tower: no
ARTCC: CLEVELAND CENTER
FSS: LANSING FLIGHT SERVICE STATION
NOTAMs facility: FDC (NOTAM-D service not available)
Attendance: CONTINUOUS
Wind indicator: lighted
Segmented circle: no
Lights: PERIMETER LIGHTS ARE ACTIVATED BY CALLING THE SECURITY OFFICE AND SECURITY TURNING THEM ON.

Heliport Communications

WX ASOS at YIP (11 nm SW): 132.35 (734-961-6843)
WX ASOS at DTW (11 nm S): 133.675 (734-955-5015)
WX AWOS-3 at VLL (14 nm NE): 119.475 (248-288-4649)
WX ASOS at PTK (16 nm N): 125.025 (248-886-8551)
WX ASOS at DET (18 nm E): PHONE 313-371-9696
WX ASOS at ARB (18 nm SW): 134.55 (734-668-7173)

Nearby radio navigation aids

VOR radial/distance  VOR name  Freq  Var
SVMr100/8.4SALEM VORTAC114.3003W
DXOr357/10.9DETROIT VOR/DME113.4006W
CRLr009/20.8CARLETON VOR/DME115.7003W
YQGr294/26.9WINDSOR VOR/DME113.8006W
FNTr162/37.6FLINT VORTAC116.9006W

 
NDB name  Hdg/Dist  Freq  Var  ID
GROSSE ILE334/20.741907WRYS .-. -.-- ...
TECUMSEH051/30.323906WTCU - -.-. ..-

Heliport Services

Runway Information

Helipad H1

Dimensions: 60 x 60 ft. / 18 x 18 m
Surface: concrete
Runway edge lights: PERI
Latitude: 42-23.533333N
Longitude: 083-24.300000W
Elevation: 674.2 ft.
Traffic pattern: leftleft

Heliport Ownership and Management from official FAA records

Ownership: Privately-owned
Owner: ST. MARY MERCY HOSPITAL
36475 FIVE MILE RD
LIVONIA, MI 48154
Phone (734) 655-2642
EXT 2457.
Manager: JACK SEMAN JR
36475 FIVE MILE RD
LIVONIA, MI 48154
Phone (734) 655-2642
DIRECTOR OF SECURITY.

Additional Remarks

APCH / DEP 090
FOR CD CTC DETROIT APCH AT 800-499-8181.

Instrument Procedures

There are no published instrument procedures at 2MI2.

Some nearby airports with instrument procedures:

1D2 - Canton-Plymouth-Mettetal Airport (4 nm SW)
KYIP - Willow Run Airport (11 nm SW)
KDTW - Detroit Metropolitan Wayne County Airport (11 nm S)
Y47 - Oakland Southwest Airport (12 nm NW)
KVLL - Oakland/Troy Airport (14 nm NE)
KPTK - Oakland County International Airport (16 nm N)
KDET - Coleman A Young Municipal Airport (18 nm E)
KARB - Ann Arbor Municipal Airport (18 nm SW)
 
Loc | Ops | Rwys | IFR | FBO | Links
Com | Nav | Svcs | Stats | Notes
Area around 2MI2 (St Mary Mercy Hospital Heliport)
 
Road maps at: MapQuest Bing Google
 
Aerial photo
No photo
 
Sectional chart

 
Airport distance calculator
Flying to St Mary Mercy Hospital Heliport? Find the distance to fly.

From to 2MI2

Sunrise and sunset
Times for 23-Jan-2020
 Local
(UTC-5)
 Zulu
(UTC)
Morning civil twilight07:2612:26
Sunrise07:5712:57
Sunset17:3522:35
Evening civil twilight18:0523:05

Current date and time
Zulu (UTC)  23-Jan-2020 23:17:06
Local (UTC-5)  23-Jan-2020 18:17:06
 
METAR
KDTW 
10nm S 
232253Z 11004KT 9SM OVC080 02/M04 A3018 RMK AO2 SLP225 T00171039
KYIP 
11nm SW 
232253Z 10004KT 10SM OVC080 03/M03 A3017 RMK AO2 SLP221 T00281033
KVLL 
14nm NE 
232255Z AUTO 11003KT 10SM OVC080 02/M03 A3019 RMK AO2 T00201034
KPTK 
16nm N 
232253Z 12005KT 10SM OVC070 01/M04 A3015 RMK AO2 SLP220 T00111044
KDET 
17nm E 
232253Z 12004KT 10SM OVC085 01/M03 A3019 RMK AO2 SLP229 T00111033
KARB 
18nm SW 
734-668-7173
232253Z 11005KT 9SM OVC090 02/M05 A3016 RMK AO2 SLP222 T00171050
TAF
KDTW 
10nm S 
232139Z 2322/2424 15007KT P6SM OVC100 FM240000 12005KT P6SM OVC080 FM240700 09005KT P6SM OVC050 TEMPO 2408/2412 P6SM -SHRA OVC025 FM241400 08010KT 5SM -RA BR OVC025 FM242100 09008KT 2SM -RA BR OVC015
KYIP 
11nm SW 
231120Z 2312/2412 14005KT P6SM OVC180 FM231800 16007KT P6SM OVC120 FM240000 12005KT P6SM OVC080 FM240800 09005KT P6SM VCSH OVC050
KPTK 
16nm N 
231725Z 2318/2418 16007KT P6SM OVC120 FM240000 12005KT P6SM OVC080 FM240700 09005KT P6SM OVC050 TEMPO 2408/2412 P6SM -RASN OVC025 FM241500 08010KT 5SM -RA BR OVC025
KDET 
17nm E 
232139Z 2322/2418 14007KT P6SM OVC100 FM240000 12005KT P6SM OVC080 FM240700 09005KT P6SM OVC050 TEMPO 2408/2412 P6SM -SHRA OVC025 FM241400 08010KT 5SM -RA BR OVC025
NOTAMs
Click for the latest NOTAMs
NOTAMs are issued by the DoD/FAA and will open in a separate window not controlled by AirNav.

 

 
 

Would you like to see your business listed on this page?

 If your business provides an interesting product or service to pilots, flight crews, aircraft, or users of the St Mary Mercy Hospital Heliport, you should consider listing it here.  To start the listing process, click on the button below
 
Add a business
 

Other Pages about St Mary Mercy Hospital Heliport

Update a link
 
Copyright © AirNav, LLC. All rights reserved. Privacy Policy  Contact